createdAt,value
2018-11-26T00:00:11.533Z,25.50
2018-11-26T00:02:19.564Z,25.50
2018-11-26T00:03:37.577Z,26.40
2018-11-26T00:04:16.579Z,25.70
2018-11-26T00:06:48.296Z,25.20
2018-11-26T00:07:52.311Z,25.00
2018-11-26T00:10:41.411Z,24.50
2018-11-26T00:12:58.706Z,25.10
2018-11-26T00:14:12.777Z,25.60
2018-11-26T00:14:51.772Z,25.20
2018-11-26T00:18:58.416Z,25.80
2018-11-26T00:19:55.424Z,24.10
2018-11-26T00:20:55.424Z,24.60
2018-11-26T00:21:55.964Z,25.40
2018-11-26T00:22:55.923Z,24.50
2018-11-26T00:23:59.924Z,24.80
2018-11-26T00:24:55.953Z,24.90
2018-11-26T00:29:04.354Z,24.20
2018-11-26T00:30:00.599Z,24.50
2018-11-26T00:31:00.605Z,25.40
2018-11-26T00:32:00.595Z,24.70
2018-11-26T00:34:35.333Z,24.20
2018-11-26T00:35:32.324Z,24.80
2018-11-26T00:36:32.325Z,23.60
2018-11-26T00:37:53.833Z,23.60
2018-11-26T00:38:32.043Z,24.70
2018-11-26T00:39:36.823Z,23.90
2018-11-26T00:40:33.760Z,25.00
2018-11-26T00:41:54.327Z,24.80
2018-11-26T00:42:55.758Z,25.40
2018-11-26T00:43:33.806Z,25.10
2018-11-26T00:44:58.323Z,25.00
2018-11-26T00:45:33.328Z,25.60
2018-11-26T00:46:34.784Z,24.90
2018-11-26T00:47:54.826Z,24.90
2018-11-26T00:48:33.825Z,23.90
2018-11-26T00:49:54.823Z,25.10
2018-11-26T00:50:37.828Z,26.10
2018-11-26T00:51:33.864Z,25.50
2018-11-26T00:52:54.823Z,26.20
2018-11-26T00:53:55.324Z,25.50
2018-11-26T00:54:35.790Z,25.60
2018-11-26T00:55:34.323Z,26.60
2018-11-26T00:56:37.823Z,26.10
2018-11-26T00:57:34.371Z,26.30
2018-11-26T00:58:37.257Z,26.60
2018-11-26T00:59:55.823Z,27.40
2018-11-26T01:02:10.302Z,27.90
2018-11-26T01:04:39.149Z,29.00
2018-11-26T01:05:39.157Z,27.60
2018-11-26T01:06:39.157Z,28.10
2018-11-26T01:08:04.155Z,27.30
2018-11-26T01:08:39.660Z,27.80
2018-11-26T01:09:39.658Z,28.30
2018-11-26T01:11:00.656Z,27.30
2018-11-26T01:11:39.655Z,27.70
2018-11-26T01:13:04.656Z,27.70
2018-11-26T01:13:40.172Z,28.60
2018-11-26T01:15:01.158Z,28.80
2018-11-26T01:16:01.155Z,28.30
2018-11-26T01:17:01.656Z,28.00
2018-11-26T01:18:06.621Z,28.30
2018-11-26T01:18:40.655Z,27.80
2018-11-26T01:19:40.654Z,28.10
2018-11-26T01:20:41.155Z,28.00
2018-11-26T01:22:07.090Z,29.80
2018-11-26T01:22:41.152Z,28.00
2018-11-26T01:23:45.154Z,27.60
2018-11-26T01:24:41.656Z,28.90
2018-11-26T01:25:43.091Z,29.10
2018-11-26T01:26:43.091Z,28.20
2018-11-26T01:27:41.665Z,28.40
2018-11-26T01:28:41.668Z,28.30
2018-11-26T01:31:38.173Z,29.40
2018-11-26T01:32:18.626Z,28.90
2018-11-26T01:33:38.181Z,28.10
2018-11-26T01:34:18.115Z,28.80
2018-11-26T01:35:20.679Z,27.90
2018-11-26T01:36:38.189Z,28.60
2018-11-26T01:37:17.679Z,29.40
2018-11-26T01:38:17.680Z,29.50
2018-11-26T01:39:17.682Z,28.50
2018-11-26T01:40:17.684Z,29.20
2018-11-26T01:41:22.179Z,28.90
2018-11-26T01:42:18.179Z,28.90
2018-11-26T01:43:18.180Z,28.70
2018-11-26T01:44:18.180Z,29.30
2018-11-26T01:46:53.408Z,29.90
2018-11-26T01:48:12.386Z,30.10
2018-11-26T01:48:50.410Z,28.30
2018-11-26T01:49:52.913Z,29.10
2018-11-26T01:50:50.912Z,29.70
2018-11-26T01:51:54.908Z,29.30
2018-11-26T01:52:50.908Z,29.80
2018-11-26T01:55:23.630Z,29.30
2018-11-26T01:56:24.609Z,28.60
2018-11-26T01:57:48.138Z,29.70
2018-11-26T01:58:23.639Z,29.20
2018-11-26T01:59:23.637Z,29.20
2018-11-26T02:00:25.596Z,29.10
2018-11-26T02:01:24.140Z,30.00
2018-11-26T02:02:25.579Z,29.60
2018-11-26T02:03:27.141Z,29.80
2018-11-26T02:04:24.141Z,29.00
2018-11-26T02:05:24.136Z,29.20
2018-11-26T02:06:25.590Z,29.70
2018-11-26T02:07:26.090Z,29.80
2018-11-26T02:08:29.571Z,29.40
2018-11-26T02:09:24.640Z,30.60
2018-11-26T02:10:24.639Z,29.70
2018-11-26T02:12:56.356Z,29.10
2018-11-26T02:13:59.867Z,28.90
2018-11-26T02:14:56.369Z,29.50
2018-11-26T02:17:28.086Z,28.10
2018-11-26T02:18:28.096Z,27.60
2018-11-26T02:19:31.599Z,28.20
2018-11-26T02:20:29.528Z,27.70
2018-11-26T02:21:28.595Z,27.50
2018-11-26T02:22:28.592Z,26.70
2018-11-26T02:23:28.593Z,26.30
2018-11-26T02:24:32.598Z,27.40
2018-11-26T02:25:29.093Z,25.60
2018-11-26T02:26:29.096Z,25.40
2018-11-26T02:27:29.093Z,25.40
2018-11-26T02:28:29.093Z,26.50
2018-11-26T02:29:29.635Z,25.60
2018-11-26T02:30:32.596Z,26.40
2018-11-26T02:31:53.528Z,25.60
2018-11-26T02:32:31.046Z,24.10
2018-11-26T02:35:01.767Z,25.60
2018-11-26T02:36:26.281Z,23.70
2018-11-26T02:37:01.776Z,23.80
2018-11-26T02:38:02.276Z,23.30
2018-11-26T02:39:02.283Z,23.70
2018-11-26T02:40:02.282Z,23.70
2018-11-26T02:41:02.283Z,24.20
2018-11-26T02:42:06.275Z,24.40
2018-11-26T02:43:06.709Z,24.20
2018-11-26T02:44:23.777Z,22.80
2018-11-26T02:45:02.775Z,23.80
2018-11-26T02:47:38.008Z,22.70
2018-11-26T02:48:34.515Z,22.80
2018-11-26T02:49:34.516Z,23.20
2018-11-26T02:52:06.736Z,21.30
2018-11-26T02:53:31.746Z,21.70
2018-11-26T02:54:06.744Z,21.10
2018-11-26T02:55:06.753Z,19.70
2018-11-26T02:56:07.244Z,19.20
2018-11-26T02:57:07.244Z,19.60
2018-11-26T02:58:07.244Z,18.80
2018-11-26T02:59:31.744Z,18.60
2018-11-26T03:00:27.817Z,19.40
2018-11-26T03:01:09.178Z,19.20
2018-11-26T03:03:39.095Z,19.00
2018-11-26T03:05:03.098Z,19.80
2018-11-26T03:05:39.117Z,19.60
2018-11-26T03:08:10.831Z,20.20
2018-11-26T03:09:31.841Z,18.80
2018-11-26T03:10:14.844Z,19.00
2018-11-26T03:11:11.342Z,19.10
2018-11-26T03:12:32.337Z,18.10
2018-11-26T03:13:11.338Z,18.80
2018-11-26T03:14:11.336Z,17.20
2018-11-26T03:15:11.855Z,18.00
2018-11-26T03:16:36.852Z,17.80
2018-11-26T03:17:11.836Z,18.10
2018-11-26T03:18:11.834Z,19.10
2018-11-26T03:19:12.337Z,18.30
2018-11-26T03:20:33.337Z,18.50
2018-11-26T03:21:12.334Z,18.00
2018-11-26T03:22:15.842Z,18.90
2018-11-26T03:26:37.981Z,18.60
2018-11-26T03:29:12.929Z,18.60
2018-11-26T03:29:51.930Z,18.20
2018-11-26T03:30:51.928Z,17.70
2018-11-26T03:31:52.432Z,18.40
2018-11-26T03:32:55.929Z,18.20
2018-11-26T03:33:52.428Z,19.50
2018-11-26T03:34:52.436Z,18.80
2018-11-26T03:35:52.928Z,18.60
2018-11-26T03:36:52.930Z,18.50
2018-11-26T03:39:28.722Z,18.00
2018-11-26T03:40:28.739Z,18.30
2018-11-26T03:41:28.736Z,18.80
2018-11-26T03:42:50.240Z,17.80
2018-11-26T03:43:55.194Z,18.50
2018-11-26T03:44:50.237Z,18.40
2018-11-26T03:45:29.237Z,18.50
2018-11-26T03:46:29.239Z,18.80
2018-11-26T03:49:03.960Z,17.50
2018-11-26T03:50:00.967Z,17.60
2018-11-26T03:51:02.402Z,17.10
2018-11-26T03:52:03.472Z,17.40
2018-11-26T03:53:22.466Z,18.00
2018-11-26T03:54:05.471Z,18.70
2018-11-26T03:55:01.467Z,17.90
2018-11-26T03:56:22.967Z,19.00
2018-11-26T03:57:01.980Z,18.50
2018-11-26T03:58:01.972Z,18.30
2018-11-26T03:59:01.977Z,18.20
2018-11-26T04:00:06.469Z,18.20
2018-11-26T04:01:02.467Z,18.10
2018-11-26T04:02:02.467Z,18.10
2018-11-26T04:03:02.464Z,19.60
2018-11-26T04:04:02.965Z,18.80
2018-11-26T04:05:04.967Z,19.50
2018-11-26T04:06:06.471Z,18.60
2018-11-26T04:07:02.966Z,19.10
2018-11-26T04:08:03.466Z,18.00
2018-11-26T04:09:24.479Z,19.00
2018-11-26T04:10:03.487Z,18.30
2018-11-26T04:11:28.467Z,19.70
2018-11-26T04:12:03.968Z,19.00
2018-11-26T04:13:03.968Z,18.80
2018-11-26T04:14:03.973Z,17.70
2018-11-26T04:15:03.966Z,18.90
2018-11-26T04:16:07.474Z,18.20
2018-11-26T04:17:04.481Z,18.80
2018-11-26T04:18:04.468Z,19.10
2018-11-26T04:19:04.467Z,18.90
2018-11-26T04:20:04.965Z,18.00
2018-11-26T04:21:29.966Z,18.10
2018-11-26T04:22:04.968Z,17.70
2018-11-26T04:23:04.962Z,18.20
2018-11-26T04:24:05.467Z,18.00
2018-11-26T04:25:05.465Z,18.50
2018-11-26T04:26:05.466Z,18.40
2018-11-26T04:27:08.966Z,18.80
2018-11-26T04:28:05.965Z,18.50
2018-11-26T04:29:05.965Z,18.20
2018-11-26T04:30:26.965Z,17.40
2018-11-26T04:31:06.899Z,19.10
2018-11-26T04:32:09.966Z,18.50
2018-11-26T04:33:06.466Z,19.60
2018-11-26T04:34:06.471Z,19.20
2018-11-26T04:35:27.474Z,19.10
2018-11-26T04:36:06.966Z,19.80
2018-11-26T04:37:06.970Z,20.30
2018-11-26T04:38:10.970Z,21.80
2018-11-26T04:39:06.968Z,21.10
2018-11-26T04:40:07.465Z,21.00
2018-11-26T04:41:08.421Z,21.40
2018-11-26T04:42:08.398Z,21.60
2018-11-26T04:43:07.464Z,22.70
2018-11-26T04:44:31.970Z,21.70
2018-11-26T04:45:07.968Z,22.60
2018-11-26T04:46:08.927Z,22.60
2018-11-26T04:47:07.964Z,23.00
2018-11-26T04:48:28.964Z,22.10
2018-11-26T04:49:11.969Z,22.00
2018-11-26T04:50:10.463Z,22.00
2018-11-26T04:51:08.463Z,22.70
2018-11-26T04:52:08.464Z,22.90
2018-11-26T04:53:08.464Z,23.80
2018-11-26T04:54:33.468Z,21.70
2018-11-26T04:55:08.963Z,22.80
2018-11-26T04:56:11.897Z,23.20
2018-11-26T04:57:08.964Z,22.60
2018-11-26T04:58:30.514Z,22.90
2018-11-26T04:59:09.465Z,23.90
2018-11-26T05:01:45.152Z,24.00
2018-11-26T05:02:45.166Z,25.10
2018-11-26T05:03:45.160Z,24.50
2018-11-26T05:04:45.662Z,25.00
2018-11-26T05:05:49.161Z,24.20
2018-11-26T05:06:45.660Z,25.60
2018-11-26T05:07:45.660Z,25.50
2018-11-26T05:08:46.161Z,25.60
2018-11-26T05:09:46.161Z,27.40
2018-11-26T05:10:51.204Z,27.40
2018-11-26T05:11:46.164Z,27.30
2018-11-26T05:12:46.660Z,27.10
2018-11-26T05:15:39.506Z,27.40
2018-11-26T05:16:21.518Z,28.80
2018-11-26T05:17:18.518Z,27.30
2018-11-26T05:18:40.015Z,26.40
2018-11-26T05:19:40.018Z,27.80
2018-11-26T05:20:19.015Z,26.10
2018-11-26T05:23:15.738Z,26.90
2018-11-26T05:23:57.682Z,27.20
2018-11-26T05:25:17.202Z,26.90
2018-11-26T05:25:55.248Z,24.50
2018-11-26T05:27:00.753Z,24.40
2018-11-26T05:27:55.249Z,23.40
2018-11-26T05:29:16.248Z,24.30
2018-11-26T05:29:55.249Z,23.70
2018-11-26T05:32:30.979Z,24.50
2018-11-26T05:33:27.977Z,23.60
2018-11-26T05:34:27.980Z,23.80
2018-11-26T05:35:27.975Z,24.70
2018-11-26T05:36:29.416Z,23.10
2018-11-26T05:37:32.485Z,23.60
2018-11-26T05:38:49.479Z,22.70
2018-11-26T05:39:49.480Z,21.90
2018-11-26T05:40:28.478Z,23.10
2018-11-26T05:41:49.979Z,22.30
2018-11-26T05:42:53.980Z,22.00
2018-11-26T05:43:49.975Z,23.00
2018-11-26T05:44:28.976Z,22.70
2018-11-26T05:47:01.196Z,21.30
2018-11-26T05:48:26.214Z,21.70
2018-11-26T05:49:01.202Z,21.60
2018-11-26T05:50:00.664Z,22.70
2018-11-26T05:51:03.175Z,21.90
2018-11-26T05:52:22.707Z,22.70
2018-11-26T05:53:01.700Z,21.40
2018-11-26T05:54:27.137Z,20.80
2018-11-26T05:56:33.429Z,21.00
2018-11-26T05:57:33.432Z,21.60
2018-11-26T05:58:33.433Z,20.50
2018-11-26T05:59:58.929Z,21.00
2018-11-26T06:02:26.783Z,21.40
2018-11-26T06:03:06.725Z,19.90
2018-11-26T06:04:05.789Z,21.00
2018-11-26T06:06:41.615Z,21.10
2018-11-26T06:07:41.622Z,21.60
2018-11-26T06:08:41.637Z,20.70
2018-11-26T06:09:42.130Z,20.40
2018-11-26T06:10:46.122Z,21.20
2018-11-26T06:11:42.121Z,20.90
2018-11-26T06:12:42.120Z,21.90
2018-11-26T06:13:42.624Z,21.90
2018-11-26T06:16:40.932Z,20.50
2018-11-26T06:17:14.479Z,21.10
2018-11-26T06:18:35.475Z,21.10
2018-11-26T06:21:08.212Z,20.40
2018-11-26T06:21:51.213Z,20.90
2018-11-26T06:22:47.222Z,21.20
2018-11-26T06:23:47.214Z,21.10
2018-11-26T06:24:47.221Z,20.50
2018-11-26T06:25:49.175Z,20.60
2018-11-26T06:26:47.718Z,21.40
2018-11-26T06:29:22.948Z,20.20
2018-11-26T06:30:22.958Z,19.00
2018-11-26T06:31:22.963Z,19.60
2018-11-26T06:32:23.464Z,18.70
2018-11-26T06:33:50.391Z,17.50
2018-11-26T06:34:23.455Z,19.30
2018-11-26T06:35:23.455Z,18.90
2018-11-26T06:39:30.895Z,18.80
2018-11-26T06:41:59.255Z,18.60
2018-11-26T06:42:59.268Z,18.70
2018-11-26T06:43:58.732Z,18.70
2018-11-26T06:45:02.612Z,18.80
2018-11-26T06:45:58.952Z,18.60
2018-11-26T06:46:59.761Z,18.20
2018-11-26T06:47:59.760Z,17.60
2018-11-26T06:48:59.760Z,18.70
2018-11-26T06:50:00.259Z,18.30
2018-11-26T06:51:24.258Z,17.60
2018-11-26T06:52:00.258Z,17.30
2018-11-26T06:53:00.260Z,17.30
2018-11-26T06:54:00.761Z,17.90
2018-11-26T06:55:00.759Z,17.60
2018-11-26T06:57:39.858Z,15.80
2018-11-26T06:58:36.447Z,16.00
2018-11-26T07:00:00.358Z,15.40
2018-11-26T07:00:36.922Z,15.90
2018-11-26T07:01:54.424Z,16.00
2018-11-26T07:02:36.924Z,16.00
2018-11-26T07:03:36.387Z,15.90
2018-11-26T07:04:59.357Z,15.30
2018-11-26T07:05:58.423Z,15.90
2018-11-26T07:06:41.423Z,15.50
2018-11-26T07:07:37.426Z,15.50
2018-11-26T07:08:37.453Z,15.60
2018-11-26T07:09:51.919Z,15.20
2018-11-26T07:10:39.395Z,14.50
2018-11-26T07:11:37.954Z,15.60
2018-11-26T07:14:14.781Z,14.70
2018-11-26T07:15:12.123Z,14.40
2018-11-26T07:16:12.795Z,15.40
2018-11-26T07:17:12.791Z,15.90
2018-11-26T07:19:48.460Z,15.00
2018-11-26T07:20:48.514Z,16.10
2018-11-26T07:24:55.172Z,14.80
2018-11-26T07:25:55.176Z,15.10
2018-11-26T07:26:55.176Z,14.90
2018-11-26T07:27:55.221Z,14.10
2018-11-26T07:28:59.188Z,13.90
2018-11-26T07:29:55.686Z,14.40
2018-11-26T07:32:49.599Z,14.80
2018-11-26T07:33:48.165Z,15.60
2018-11-26T07:36:00.966Z,15.50
2018-11-26T07:37:00.305Z,15.50
2018-11-26T07:38:00.972Z,15.50
2018-11-26T07:39:00.974Z,15.10
2018-11-26T07:40:25.528Z,16.10
2018-11-26T07:41:01.472Z,15.60
2018-11-26T07:43:53.829Z,15.40
2018-11-26T07:44:36.264Z,15.20
2018-11-26T07:45:36.831Z,15.20
2018-11-26T07:46:53.400Z,16.30
2018-11-26T07:47:33.328Z,15.00
2018-11-26T07:48:54.328Z,15.80
2018-11-26T07:49:33.326Z,16.80
2018-11-26T07:50:33.340Z,16.00
2018-11-26T07:51:37.824Z,15.20
2018-11-26T07:52:33.827Z,15.20
2018-11-26T07:53:39.824Z,15.70
2018-11-26T07:54:33.825Z,16.10
2018-11-26T07:55:57.326Z,20.20
2018-11-26T07:56:34.331Z,22.30
2018-11-26T07:57:37.824Z,17.60
2018-11-26T07:58:34.329Z,16.60
2018-11-26T07:59:55.826Z,17.00
2018-11-26T08:02:06.180Z,16.90
2018-11-26T08:03:36.686Z,16.80
2018-11-26T08:04:06.190Z,17.00
2018-11-26T08:05:06.685Z,15.60
2018-11-26T08:06:08.885Z,16.60
2018-11-26T08:07:06.694Z,15.80
2018-11-26T08:10:02.295Z,16.90
2018-11-26T08:10:42.048Z,16.00
2018-11-26T08:11:42.047Z,15.70
2018-11-26T08:12:42.564Z,16.50
2018-11-26T08:13:46.047Z,15.90
2018-11-26T08:14:56.546Z,15.70
2018-11-26T08:16:03.556Z,15.30
2018-11-26T08:16:45.046Z,16.30
2018-11-26T08:17:43.482Z,16.60
2018-11-26T08:18:43.062Z,17.00
2018-11-26T08:19:46.045Z,16.50
2018-11-26T08:20:43.046Z,16.40
2018-11-26T08:22:04.546Z,15.10
2018-11-26T08:24:15.396Z,16.10
2018-11-26T08:25:18.910Z,15.80
2018-11-26T08:29:34.092Z,15.80
2018-11-26T08:30:45.098Z,16.20
2018-11-26T08:31:20.131Z,16.20
2018-11-26T08:32:20.096Z,16.20
2018-11-26T08:33:40.716Z,16.50
2018-11-26T08:35:55.442Z,16.30
2018-11-26T08:36:52.452Z,16.90
2018-11-26T08:37:52.477Z,16.10
2018-11-26T08:38:54.956Z,17.20
2018-11-26T08:39:52.989Z,16.60
2018-11-26T08:40:56.951Z,16.80
2018-11-26T08:41:52.985Z,14.90
2018-11-26T08:42:53.893Z,16.10
2018-11-26T08:43:55.463Z,16.40
2018-11-26T08:44:53.450Z,17.10
2018-11-26T08:45:53.492Z,16.00
2018-11-26T08:46:56.949Z,15.90
2018-11-26T08:47:52.921Z,16.50
2018-11-26T08:48:53.957Z,16.70
2018-11-26T08:49:53.952Z,16.50
2018-11-26T08:50:53.949Z,15.40
2018-11-26T08:51:57.952Z,15.30
2018-11-26T08:52:53.540Z,15.40
2018-11-26T08:53:53.630Z,16.40
2018-11-26T08:55:17.884Z,16.20
2018-11-26T08:55:54.450Z,16.30
2018-11-26T08:56:54.451Z,16.90
2018-11-26T08:58:11.951Z,17.40
2018-11-26T08:58:54.951Z,17.40
2018-11-26T09:00:16.113Z,17.90
2018-11-26T09:00:54.948Z,18.20
2018-11-26T09:01:56.884Z,18.50
2018-11-26T09:02:58.949Z,18.30
2018-11-26T09:03:55.458Z,17.80
2018-11-26T09:04:55.449Z,17.30
2018-11-26T09:05:56.885Z,18.20
2018-11-26T09:08:30.614Z,18.50
2018-11-26T09:09:48.129Z,18.10
2018-11-26T09:10:27.124Z,18.30
2018-11-26T09:13:00.296Z,18.90
2018-11-26T09:14:04.352Z,18.90
2018-11-26T09:16:50.711Z,19.80
2018-11-26T09:19:05.439Z,20.20
2018-11-26T09:20:02.446Z,21.00
2018-11-26T09:21:01.785Z,21.60
2018-11-26T09:22:02.451Z,20.20
2018-11-26T09:23:23.445Z,20.30
2018-11-26T09:25:40.666Z,19.80
2018-11-26T09:26:38.675Z,20.20
2018-11-26T09:27:59.675Z,20.30
2018-11-26T09:28:39.174Z,19.40
2018-11-26T09:29:42.200Z,20.70
2018-11-26T09:31:02.176Z,21.50
2018-11-26T09:31:39.175Z,21.30
2018-11-26T09:33:00.688Z,21.00
2018-11-26T09:33:39.674Z,21.10
2018-11-26T09:34:57.674Z,21.70
2018-11-26T09:36:00.677Z,21.50
2018-11-26T09:38:32.465Z,21.40
2018-11-26T09:39:13.882Z,22.00
2018-11-26T09:41:48.070Z,22.30
2018-11-26T09:42:48.079Z,22.80
2018-11-26T09:44:09.588Z,22.60
2018-11-26T09:44:48.587Z,21.80
2018-11-26T09:47:23.259Z,22.50
2018-11-26T09:48:23.255Z,22.70
2018-11-26T09:49:23.754Z,22.90
2018-11-26T09:50:46.696Z,22.20
2018-11-26T09:51:48.259Z,23.40
2018-11-26T09:52:23.755Z,23.00
2018-11-26T09:53:23.219Z,22.70
2018-11-26T09:54:30.687Z,23.00
2018-11-26T09:56:59.103Z,23.60
2018-11-26T09:57:55.602Z,22.10
2018-11-26T09:58:55.602Z,22.70
2018-11-26T09:59:58.108Z,23.60
2018-11-26T10:01:19.116Z,22.00
2018-11-26T10:01:59.525Z,22.60
2018-11-26T10:02:55.611Z,21.80
2018-11-26T10:03:55.704Z,20.70
2018-11-26T10:04:58.600Z,20.70
2018-11-26T10:05:58.605Z,21.20
2018-11-26T10:07:22.223Z,20.50
2018-11-26T10:08:32.106Z,21.70
2018-11-26T10:12:00.496Z,21.10
2018-11-26T10:13:04.501Z,20.80
2018-11-26T10:15:53.477Z,22.10
2018-11-26T10:16:34.492Z,21.90
2018-11-26T10:17:32.481Z,21.80
2018-11-26T10:18:49.990Z,22.20
2018-11-26T10:19:33.025Z,21.60
2018-11-26T10:20:32.985Z,22.90
2018-11-26T10:21:32.983Z,21.90
2018-11-26T10:22:33.492Z,21.40
2018-11-26T10:23:36.553Z,22.30
2018-11-26T10:24:33.485Z,22.30
2018-11-26T10:25:33.489Z,22.00
2018-11-26T10:26:33.494Z,21.60
2018-11-26T10:27:34.920Z,22.20
2018-11-26T10:28:33.993Z,22.90
2018-11-26T10:31:08.668Z,22.40
2018-11-26T10:32:08.704Z,22.20
2018-11-26T10:33:14.717Z,22.40
2018-11-26T10:34:15.099Z,21.10
2018-11-26T10:35:12.663Z,21.70
2018-11-26T10:36:10.601Z,21.70
2018-11-26T10:37:08.627Z,20.60
2018-11-26T10:38:36.664Z,21.10
2018-11-26T10:40:44.391Z,21.60
2018-11-26T10:43:12.476Z,22.60
2018-11-26T10:44:12.372Z,21.80
2018-11-26T10:45:12.373Z,22.50
2018-11-26T10:46:36.877Z,22.60
2018-11-26T10:47:12.873Z,23.20
2018-11-26T10:48:12.874Z,22.50
2018-11-26T10:51:05.476Z,23.20
2018-11-26T10:51:47.994Z,23.40
2018-11-26T10:53:05.986Z,22.90
2018-11-26T10:54:05.976Z,24.20
2018-11-26T10:54:44.987Z,24.20
2018-11-26T10:56:05.985Z,24.00
2018-11-26T10:57:11.412Z,23.40
2018-11-26T10:57:46.945Z,23.00
2018-11-26T10:58:44.794Z,23.10
2018-11-26T10:59:45.505Z,24.10
2018-11-26T11:00:45.485Z,23.60
2018-11-26T11:02:08.978Z,23.30
2018-11-26T11:02:49.977Z,23.50
2018-11-26T11:03:47.988Z,22.40
2018-11-26T11:04:47.781Z,22.20
2018-11-26T11:06:07.477Z,22.60
2018-11-26T11:06:46.478Z,21.90
2018-11-26T11:09:22.777Z,22.60
2018-11-26T11:10:22.786Z,23.30
2018-11-26T11:11:23.438Z,24.40
2018-11-26T11:12:22.792Z,24.40
2018-11-26T11:13:26.794Z,23.60
2018-11-26T11:14:46.302Z,23.80
2018-11-26T11:15:23.286Z,23.60
2018-11-26T11:16:23.301Z,23.20
2018-11-26T11:17:23.785Z,23.80
2018-11-26T11:18:54.285Z,23.90
2018-11-26T11:19:23.784Z,24.00
2018-11-26T11:21:55.892Z,23.80
2018-11-26T11:22:59.333Z,24.10
2018-11-26T11:23:58.775Z,24.40
2018-11-26T11:26:49.629Z,25.40
2018-11-26T11:27:28.636Z,25.10
2018-11-26T11:28:29.133Z,25.70
2018-11-26T11:31:07.027Z,25.40
2018-11-26T11:35:12.809Z,26.20
2018-11-26T11:36:31.276Z,26.50
2018-11-26T11:37:08.811Z,27.10
2018-11-26T11:38:36.313Z,26.70
2018-11-26T11:39:09.312Z,27.10
2018-11-26T11:40:09.309Z,26.90
2018-11-26T11:41:24.246Z,27.10
2018-11-26T11:42:12.746Z,27.60
2018-11-26T11:43:30.812Z,26.90
2018-11-26T11:44:09.812Z,26.70
2018-11-26T11:45:32.246Z,26.90
2018-11-26T11:46:34.812Z,28.10
2018-11-26T11:47:10.314Z,27.60
2018-11-26T11:48:10.312Z,30.70
2018-11-26T11:49:09.779Z,31.20
2018-11-26T11:50:31.841Z,30.50
2018-11-26T11:51:10.819Z,25.70
2018-11-26T11:52:13.811Z,25.10
2018-11-26T11:53:10.813Z,24.60
2018-11-26T11:54:10.809Z,24.80
2018-11-26T11:55:32.313Z,25.30
2018-11-26T11:56:11.311Z,24.70
2018-11-26T11:58:46.603Z,23.60
2018-11-26T12:01:41.566Z,24.40
2018-11-26T12:02:43.568Z,24.10
2018-11-26T12:03:17.925Z,23.60
2018-11-26T12:04:18.577Z,23.70
2018-11-26T12:06:50.178Z,24.30
2018-11-26T12:10:59.110Z,24.30
2018-11-26T12:11:57.663Z,23.40
2018-11-26T12:13:01.148Z,23.10
2018-11-26T12:14:04.154Z,23.00
2018-11-26T12:15:04.154Z,22.70
2018-11-26T12:15:57.492Z,23.30
2018-11-26T12:16:58.151Z,22.40
2018-11-26T12:18:04.654Z,22.30
2018-11-26T12:18:58.657Z,22.10
2018-11-26T12:20:01.586Z,22.80
2018-11-26T12:21:19.650Z,23.00
2018-11-26T12:21:59.151Z,23.50
2018-11-26T12:23:24.171Z,24.00
2018-11-26T12:23:58.492Z,22.80
2018-11-26T12:24:59.151Z,23.90
2018-11-26T12:25:59.152Z,22.70
2018-11-26T12:26:59.650Z,23.70
2018-11-26T12:28:20.653Z,23.90
2018-11-26T12:29:03.653Z,24.20
2018-11-26T12:29:59.653Z,22.50
2018-11-26T12:32:31.399Z,23.60
2018-11-26T12:33:52.377Z,23.00
2018-11-26T12:37:58.323Z,24.20
2018-11-26T12:38:40.070Z,23.30
2018-11-26T12:39:41.578Z,23.80
2018-11-26T12:40:58.645Z,24.00
2018-11-26T12:41:45.502Z,23.20
2018-11-26T12:42:38.574Z,23.80
2018-11-26T12:43:38.567Z,24.10
2018-11-26T12:44:42.567Z,23.40
2018-11-26T12:47:10.294Z,22.80
2018-11-26T12:48:10.311Z,23.00
2018-11-26T12:49:09.758Z,23.90
2018-11-26T12:50:35.305Z,24.30
2018-11-26T12:53:02.277Z,21.70
2018-11-26T12:53:42.027Z,22.30
2018-11-26T12:54:42.027Z,23.40
2018-11-26T12:56:07.029Z,23.50
2018-11-26T12:56:42.527Z,22.70
2018-11-26T12:58:03.527Z,22.10
2018-11-26T12:58:42.527Z,22.80
2018-11-26T12:59:44.964Z,23.00
2018-11-26T13:00:57.043Z,22.20
2018-11-26T13:01:48.961Z,22.80
2018-11-26T13:02:45.027Z,22.20
2018-11-26T13:04:04.032Z,23.10
2018-11-26T13:04:43.541Z,22.90
2018-11-26T13:05:43.529Z,23.70
2018-11-26T13:06:43.526Z,23.40
2018-11-26T13:08:01.036Z,23.10
2018-11-26T13:08:44.033Z,22.20
2018-11-26T13:09:44.051Z,23.00
2018-11-26T13:10:44.026Z,23.70
2018-11-26T13:11:44.027Z,25.10
2018-11-26T13:12:48.027Z,24.30
2018-11-26T13:13:46.978Z,23.60
2018-11-26T13:14:43.820Z,23.40
2018-11-26T13:15:44.526Z,23.10
2018-11-26T13:16:44.528Z,23.60
2018-11-26T13:18:08.834Z,24.10
2018-11-26T13:18:45.029Z,23.50
2018-11-26T13:21:16.869Z,24.20
2018-11-26T13:22:19.812Z,23.30
2018-11-26T13:23:20.120Z,24.50
2018-11-26T13:24:16.333Z,24.80
2018-11-26T13:25:23.382Z,24.70
2018-11-26T13:26:22.311Z,25.00
2018-11-26T13:27:17.378Z,23.60
2018-11-26T13:28:17.377Z,24.30
2018-11-26T13:29:34.888Z,22.40
2018-11-26T13:30:17.877Z,23.50
2018-11-26T13:35:55.444Z,25.20
2018-11-26T13:36:55.450Z,24.80
2018-11-26T13:37:55.490Z,25.10
2018-11-26T13:38:54.961Z,25.20
2018-11-26T13:41:33.117Z,24.60
2018-11-26T13:42:52.124Z,23.90
2018-11-26T13:43:31.148Z,24.20
2018-11-26T13:44:37.623Z,23.10
2018-11-26T13:45:35.123Z,24.00
2018-11-26T13:46:52.623Z,23.60
2018-11-26T13:47:31.626Z,24.80
2018-11-26T13:48:53.127Z,24.00
2018-11-26T13:49:53.124Z,24.10
2018-11-26T13:50:32.128Z,24.20
2018-11-26T13:51:36.129Z,23.70
2018-11-26T13:54:03.843Z,24.10
2018-11-26T13:55:03.850Z,22.70
2018-11-26T13:56:03.882Z,23.90
2018-11-26T13:57:07.856Z,23.80
2018-11-26T13:58:04.352Z,23.80
2018-11-26T13:59:03.686Z,24.40
2018-11-26T14:00:04.352Z,23.80
2018-11-26T14:01:03.822Z,24.00
2018-11-26T14:02:06.847Z,23.50
2018-11-26T14:03:07.190Z,22.90
2018-11-26T14:04:04.154Z,24.70
2018-11-26T14:05:04.243Z,23.60
2018-11-26T14:06:04.849Z,23.10
2018-11-26T14:07:04.438Z,24.10
2018-11-26T14:09:41.021Z,24.40
2018-11-26T14:10:41.330Z,24.60
2018-11-26T14:11:41.030Z,23.40
2018-11-26T14:12:41.530Z,23.20
2018-11-26T14:13:44.019Z,23.10
2018-11-26T14:14:40.858Z,24.40
2018-11-26T14:15:41.555Z,23.50
2018-11-26T14:16:41.531Z,24.50
2018-11-26T14:17:42.031Z,23.70
2018-11-26T14:19:07.030Z,25.00
2018-11-26T14:19:42.030Z,24.60
2018-11-26T14:20:42.030Z,26.40
2018-11-26T14:22:10.583Z,30.50
2018-11-26T14:24:17.394Z,24.30
2018-11-26T14:25:13.890Z,24.20
2018-11-26T14:26:34.897Z,24.30
2018-11-26T14:27:34.463Z,25.00
2018-11-26T14:28:14.392Z,23.40
2018-11-26T14:29:16.983Z,24.00
2018-11-26T14:30:35.390Z,25.10
2018-11-26T14:31:14.388Z,24.40
2018-11-26T14:32:14.388Z,25.00
2018-11-26T14:33:14.888Z,24.20
2018-11-26T14:34:14.889Z,24.10
2018-11-26T14:35:42.830Z,23.80
2018-11-26T14:36:37.891Z,23.40
2018-11-26T14:37:14.888Z,22.30
2018-11-26T14:38:15.391Z,22.80
2018-11-26T14:39:36.399Z,22.00
2018-11-26T14:40:17.388Z,21.70
2018-11-26T14:42:50.224Z,21.50
2018-11-26T14:44:04.494Z,21.10
2018-11-26T14:45:11.233Z,21.40
2018-11-26T14:46:11.733Z,22.10
2018-11-26T14:46:54.234Z,22.40
2018-11-26T14:47:50.434Z,22.60
2018-11-26T14:48:50.730Z,22.10
2018-11-26T14:49:51.233Z,22.60
2018-11-26T14:50:51.232Z,22.70
2018-11-26T14:51:50.584Z,23.00
2018-11-26T14:52:55.241Z,23.50
2018-11-26T14:57:15.380Z,23.30
2018-11-26T14:58:31.387Z,21.50
2018-11-26T14:58:54.387Z,22.90
2018-11-26T14:59:53.976Z,22.20
2018-11-26T15:01:15.048Z,22.10
2018-11-26T15:02:15.887Z,23.50
2018-11-26T15:02:58.887Z,23.50
2018-11-26T15:04:08.887Z,23.90
2018-11-26T15:06:26.612Z,23.10
2018-11-26T15:07:26.634Z,24.40
2018-11-26T15:08:36.681Z,22.60
2018-11-26T15:09:28.557Z,23.60
2018-11-26T15:13:31.903Z,23.30
2018-11-26T15:14:31.657Z,23.50
2018-11-26T15:15:57.680Z,25.30
2018-11-26T15:16:51.679Z,23.50
2018-11-26T15:17:51.679Z,24.80
2018-11-26T15:18:34.684Z,23.60
2018-11-26T15:19:37.177Z,25.40
2018-11-26T15:20:53.113Z,26.60
2018-11-26T15:21:53.635Z,29.00
2018-11-26T15:24:06.234Z,23.70
2018-11-26T15:25:23.743Z,24.10
2018-11-26T15:26:02.744Z,23.00
2018-11-26T15:27:03.253Z,23.20
2018-11-26T15:28:03.296Z,22.90
2018-11-26T15:29:02.563Z,20.80